sensor_id;sensor_type;location;lat;lon;timestamp;P1;durP1;ratioP1;P2;durP2;ratioP2
26407;SDS011;14583;43.604;1.364;2023-02-15T00:01:10;13.88;;;7.38;;
26407;SDS011;14583;43.604;1.364;2023-02-15T00:03:36;14.82;;;7.50;;
26407;SDS011;14583;43.604;1.364;2023-02-15T00:06:03;14.35;;;7.18;;
26407;SDS011;14583;43.604;1.364;2023-02-15T00:08:30;13.02;;;7.25;;
26407;SDS011;14583;43.604;1.364;2023-02-15T00:11:06;17.27;;;7.57;;
26407;SDS011;14583;43.604;1.364;2023-02-15T00:13:32;14.65;;;7.47;;
26407;SDS011;14583;43.604;1.364;2023-02-15T00:16:04;16.08;;;6.40;;
26407;SDS011;14583;43.604;1.364;2023-02-15T00:18:32;12.27;;;6.65;;
26407;SDS011;14583;43.604;1.364;2023-02-15T00:20:58;15.15;;;7.05;;
26407;SDS011;14583;43.604;1.364;2023-02-15T00:23:29;17.17;;;7.75;;
26407;SDS011;14583;43.604;1.364;2023-02-15T00:26:08;15.65;;;7.85;;
26407;SDS011;14583;43.604;1.364;2023-02-15T00:28:35;13.75;;;7.63;;
26407;SDS011;14583;43.604;1.364;2023-02-15T00:31:02;20.60;;;7.22;;
26407;SDS011;14583;43.604;1.364;2023-02-15T00:33:32;12.57;;;7.18;;
26407;SDS011;14583;43.604;1.364;2023-02-15T00:35:58;16.02;;;7.10;;
26407;SDS011;14583;43.604;1.364;2023-02-15T00:38:25;13.07;;;7.53;;
26407;SDS011;14583;43.604;1.364;2023-02-15T00:40:55;19.63;;;7.70;;
26407;SDS011;14583;43.604;1.364;2023-02-15T00:43:22;12.02;;;7.03;;
26407;SDS011;14583;43.604;1.364;2023-02-15T00:45:48;13.88;;;7.07;;
26407;SDS011;14583;43.604;1.364;2023-02-15T00:48:14;15.68;;;6.75;;
26407;SDS011;14583;43.604;1.364;2023-02-15T00:50:39;13.90;;;7.00;;
26407;SDS011;14583;43.604;1.364;2023-02-15T00:53:05;17.75;;;7.65;;
26407;SDS011;14583;43.604;1.364;2023-02-15T00:55:31;18.90;;;7.75;;
26407;SDS011;14583;43.604;1.364;2023-02-15T00:57:56;14.88;;;6.72;;
26407;SDS011;14583;43.604;1.364;2023-02-15T01:00:22;14.75;;;7.68;;
26407;SDS011;14583;43.604;1.364;2023-02-15T01:02:48;16.33;;;7.53;;
26407;SDS011;14583;43.604;1.364;2023-02-15T01:05:13;15.50;;;7.25;;
26407;SDS011;14583;43.604;1.364;2023-02-15T01:07:39;20.33;;;7.70;;
26407;SDS011;14583;43.604;1.364;2023-02-15T01:10:05;19.75;;;7.45;;
26407;SDS011;14583;43.604;1.364;2023-02-15T01:12:32;14.07;;;7.45;;
26407;SDS011;14583;43.604;1.364;2023-02-15T01:14:58;17.67;;;7.22;;
26407;SDS011;14583;43.604;1.364;2023-02-15T01:17:23;17.98;;;7.03;;
26407;SDS011;14583;43.604;1.364;2023-02-15T01:19:49;14.60;;;7.15;;
26407;SDS011;14583;43.604;1.364;2023-02-15T01:22:16;12.68;;;7.35;;
26407;SDS011;14583;43.604;1.364;2023-02-15T01:24:42;19.20;;;8.00;;
26407;SDS011;14583;43.604;1.364;2023-02-15T01:27:08;16.25;;;7.75;;
26407;SDS011;14583;43.604;1.364;2023-02-15T01:29:33;16.05;;;7.50;;
26407;SDS011;14583;43.604;1.364;2023-02-15T01:31:59;14.10;;;7.38;;
26407;SDS011;14583;43.604;1.364;2023-02-15T01:34:25;16.50;;;7.40;;
26407;SDS011;14583;43.604;1.364;2023-02-15T01:36:50;16.38;;;7.28;;
26407;SDS011;14583;43.604;1.364;2023-02-15T01:39:16;15.40;;;7.75;;
26407;SDS011;14583;43.604;1.364;2023-02-15T01:41:42;19.50;;;7.80;;
26407;SDS011;14583;43.604;1.364;2023-02-15T01:44:40;14.95;;;7.45;;
26407;SDS011;14583;43.604;1.364;2023-02-15T01:47:16;16.17;;;7.60;;
26407;SDS011;14583;43.604;1.364;2023-02-15T01:52:28;21.70;;;8.25;;
26407;SDS011;14583;43.604;1.364;2023-02-15T01:54:54;20.48;;;7.68;;
26407;SDS011;14583;43.604;1.364;2023-02-15T01:57:22;16.30;;;7.47;;
26407;SDS011;14583;43.604;1.364;2023-02-15T01:59:51;20.55;;;7.95;;
26407;SDS011;14583;43.604;1.364;2023-02-15T02:02:21;15.80;;;7.78;;
26407;SDS011;14583;43.604;1.364;2023-02-15T02:04:52;13.70;;;7.68;;
26407;SDS011;14583;43.604;1.364;2023-02-15T02:07:23;16.88;;;7.63;;
26407;SDS011;14583;43.604;1.364;2023-02-15T02:09:52;13.48;;;7.60;;
26407;SDS011;14583;43.604;1.364;2023-02-15T02:12:17;21.90;;;8.30;;
26407;SDS011;14583;43.604;1.364;2023-02-15T02:14:44;21.30;;;8.18;;
26407;SDS011;14583;43.604;1.364;2023-02-15T02:34:36;18.00;;;8.10;;
26407;SDS011;14583;43.604;1.364;2023-02-15T02:42:38;21.70;;;8.52;;
26407;SDS011;14583;43.604;1.364;2023-02-15T02:45:16;15.25;;;8.27;;
26407;SDS011;14583;43.604;1.364;2023-02-15T02:48:01;17.15;;;9.13;;
26407;SDS011;14583;43.604;1.364;2023-02-15T02:50:32;16.98;;;9.20;;
26407;SDS011;14583;43.604;1.364;2023-02-15T02:52:58;15.77;;;8.52;;
26407;SDS011;14583;43.604;1.364;2023-02-15T03:00:38;22.20;;;9.13;;
26407;SDS011;14583;43.604;1.364;2023-02-15T03:03:11;16.73;;;8.40;;
26407;SDS011;14583;43.604;1.364;2023-02-15T03:05:41;23.23;;;8.95;;
26407;SDS011;14583;43.604;1.364;2023-02-15T03:08:09;16.33;;;8.98;;
26407;SDS011;14583;43.604;1.364;2023-02-15T03:10:46;18.58;;;8.70;;
26407;SDS011;14583;43.604;1.364;2023-02-15T03:13:15;18.52;;;8.52;;
26407;SDS011;14583;43.604;1.364;2023-02-15T03:15:42;17.65;;;8.52;;
26407;SDS011;14583;43.604;1.364;2023-02-15T03:18:30;14.55;;;8.90;;
26407;SDS011;14583;43.604;1.364;2023-02-15T03:21:09;21.42;;;8.50;;
26407;SDS011;14583;43.604;1.364;2023-02-15T03:23:48;17.77;;;9.35;;
26407;SDS011;14583;43.604;1.364;2023-02-15T03:26:34;20.10;;;9.68;;
26407;SDS011;14583;43.604;1.364;2023-02-15T03:29:01;21.17;;;9.32;;
26407;SDS011;14583;43.604;1.364;2023-02-15T03:31:29;13.75;;;8.27;;
26407;SDS011;14583;43.604;1.364;2023-02-15T03:34:00;20.67;;;8.80;;
26407;SDS011;14583;43.604;1.364;2023-02-15T03:39:11;18.75;;;8.48;;
26407;SDS011;14583;43.604;1.364;2023-02-15T03:41:48;22.55;;;9.25;;
26407;SDS011;14583;43.604;1.364;2023-02-15T03:44:36;17.63;;;9.18;;
26407;SDS011;14583;43.604;1.364;2023-02-15T03:47:13;18.23;;;9.13;;
26407;SDS011;14583;43.604;1.364;2023-02-15T03:49:42;16.85;;;8.57;;
26407;SDS011;14583;43.604;1.364;2023-02-15T03:52:10;13.90;;;7.65;;
26407;SDS011;14583;43.604;1.364;2023-02-15T03:54:38;17.50;;;9.57;;
26407;SDS011;14583;43.604;1.364;2023-02-15T03:57:12;20.65;;;8.95;;
26407;SDS011;14583;43.604;1.364;2023-02-15T03:59:57;20.23;;;9.20;;
26407;SDS011;14583;43.604;1.364;2023-02-15T04:05:31;25.30;;;9.80;;
26407;SDS011;14583;43.604;1.364;2023-02-15T04:07:56;25.05;;;9.88;;
26407;SDS011;14583;43.604;1.364;2023-02-15T04:10:22;20.92;;;9.10;;
26407;SDS011;14583;43.604;1.364;2023-02-15T04:13:06;23.50;;;8.68;;
26407;SDS011;14583;43.604;1.364;2023-02-15T04:15:32;19.17;;;9.88;;
26407;SDS011;14583;43.604;1.364;2023-02-15T04:18:16;30.90;;;9.70;;
26407;SDS011;14583;43.604;1.364;2023-02-15T04:20:45;19.30;;;9.90;;
26407;SDS011;14583;43.604;1.364;2023-02-15T04:23:30;18.05;;;9.15;;
26407;SDS011;14583;43.604;1.364;2023-02-15T04:26:15;18.45;;;9.15;;
26407;SDS011;14583;43.604;1.364;2023-02-15T04:28:40;24.52;;;9.25;;
26407;SDS011;14583;43.604;1.364;2023-02-15T04:31:06;20.02;;;9.65;;
26407;SDS011;14583;43.604;1.364;2023-02-15T04:33:32;18.10;;;10.02;;
26407;SDS011;14583;43.604;1.364;2023-02-15T04:35:58;18.08;;;9.57;;
26407;SDS011;14583;43.604;1.364;2023-02-15T04:38:23;20.13;;;9.95;;
26407;SDS011;14583;43.604;1.364;2023-02-15T04:40:50;21.45;;;10.25;;
26407;SDS011;14583;43.604;1.364;2023-02-15T04:43:17;19.80;;;9.90;;
26407;SDS011;14583;43.604;1.364;2023-02-15T04:45:48;17.63;;;9.18;;
26407;SDS011;14583;43.604;1.364;2023-02-15T04:48:15;18.65;;;9.38;;
26407;SDS011;14583;43.604;1.364;2023-02-15T04:50:42;20.17;;;9.50;;
26407;SDS011;14583;43.604;1.364;2023-02-15T04:53:09;18.92;;;9.43;;
26407;SDS011;14583;43.604;1.364;2023-02-15T04:55:38;21.42;;;9.95;;
26407;SDS011;14583;43.604;1.364;2023-02-15T04:58:04;22.10;;;9.52;;
26407;SDS011;14583;43.604;1.364;2023-02-15T05:00:29;20.35;;;9.43;;
26407;SDS011;14583;43.604;1.364;2023-02-15T05:02:55;24.25;;;9.88;;
26407;SDS011;14583;43.604;1.364;2023-02-15T05:05:21;23.58;;;9.30;;
26407;SDS011;14583;43.604;1.364;2023-02-15T05:07:46;21.83;;;9.43;;
26407;SDS011;14583;43.604;1.364;2023-02-15T05:10:12;22.00;;;9.35;;
26407;SDS011;14583;43.604;1.364;2023-02-15T05:12:38;19.17;;;9.57;;
26407;SDS011;14583;43.604;1.364;2023-02-15T05:15:03;27.35;;;10.23;;
26407;SDS011;14583;43.604;1.364;2023-02-15T05:17:29;20.67;;;10.32;;
26407;SDS011;14583;43.604;1.364;2023-02-15T05:19:55;24.38;;;9.65;;
26407;SDS011;14583;43.604;1.364;2023-02-15T05:22:20;23.52;;;9.32;;
26407;SDS011;14583;43.604;1.364;2023-02-15T05:24:46;19.75;;;10.00;;
26407;SDS011;14583;43.604;1.364;2023-02-15T05:27:30;21.52;;;9.98;;
26407;SDS011;14583;43.604;1.364;2023-02-15T05:30:14;20.13;;;9.38;;
26407;SDS011;14583;43.604;1.364;2023-02-15T05:32:40;16.88;;;8.95;;
26407;SDS011;14583;43.604;1.364;2023-02-15T05:35:06;19.05;;;9.48;;
26407;SDS011;14583;43.604;1.364;2023-02-15T05:37:32;21.02;;;9.57;;
26407;SDS011;14583;43.604;1.364;2023-02-15T05:39:58;21.92;;;9.27;;
26407;SDS011;14583;43.604;1.364;2023-02-15T05:42:24;22.42;;;9.32;;
26407;SDS011;14583;43.604;1.364;2023-02-15T05:44:49;24.63;;;10.20;;
26407;SDS011;14583;43.604;1.364;2023-02-15T05:47:15;17.60;;;9.15;;
26407;SDS011;14583;43.604;1.364;2023-02-15T05:49:41;17.35;;;9.13;;
26407;SDS011;14583;43.604;1.364;2023-02-15T05:52:06;18.80;;;9.38;;
26407;SDS011;14583;43.604;1.364;2023-02-15T05:54:33;22.35;;;10.07;;
26407;SDS011;14583;43.604;1.364;2023-02-15T05:56:58;18.77;;;8.88;;
26407;SDS011;14583;43.604;1.364;2023-02-15T05:59:24;22.67;;;10.35;;
26407;SDS011;14583;43.604;1.364;2023-02-15T06:01:50;15.65;;;9.20;;
26407;SDS011;14583;43.604;1.364;2023-02-15T06:04:15;18.30;;;9.00;;
26407;SDS011;14583;43.604;1.364;2023-02-15T06:06:41;19.10;;;9.18;;
26407;SDS011;14583;43.604;1.364;2023-02-15T06:09:07;21.30;;;9.60;;
26407;SDS011;14583;43.604;1.364;2023-02-15T06:11:32;20.98;;;9.52;;
26407;SDS011;14583;43.604;1.364;2023-02-15T06:13:58;16.48;;;9.32;;
26407;SDS011;14583;43.604;1.364;2023-02-15T06:16:24;15.73;;;8.85;;
26407;SDS011;14583;43.604;1.364;2023-02-15T06:18:49;18.30;;;9.60;;
26407;SDS011;14583;43.604;1.364;2023-02-15T06:21:15;15.23;;;9.05;;
26407;SDS011;14583;43.604;1.364;2023-02-15T06:23:41;19.90;;;8.77;;
26407;SDS011;14583;43.604;1.364;2023-02-15T06:26:06;19.85;;;8.93;;
26407;SDS011;14583;43.604;1.364;2023-02-15T06:28:32;24.90;;;8.70;;
26407;SDS011;14583;43.604;1.364;2023-02-15T06:30:58;22.13;;;9.57;;
26407;SDS011;14583;43.604;1.364;2023-02-15T06:33:23;20.10;;;9.30;;
26407;SDS011;14583;43.604;1.364;2023-02-15T06:35:49;27.60;;;10.48;;
26407;SDS011;14583;43.604;1.364;2023-02-15T06:38:14;19.17;;;9.05;;
26407;SDS011;14583;43.604;1.364;2023-02-15T06:40:41;18.38;;;8.80;;
26407;SDS011;14583;43.604;1.364;2023-02-15T06:43:07;17.52;;;8.93;;
26407;SDS011;14583;43.604;1.364;2023-02-15T06:45:32;15.50;;;9.45;;
26407;SDS011;14583;43.604;1.364;2023-02-15T06:47:58;20.17;;;9.63;;
26407;SDS011;14583;43.604;1.364;2023-02-15T06:50:24;24.10;;;10.63;;
26407;SDS011;14583;43.604;1.364;2023-02-15T06:52:54;16.27;;;9.23;;
26407;SDS011;14583;43.604;1.364;2023-02-15T06:55:21;19.35;;;10.52;;
26407;SDS011;14583;43.604;1.364;2023-02-15T06:57:46;18.98;;;8.77;;
26407;SDS011;14583;43.604;1.364;2023-02-15T07:00:12;20.38;;;9.40;;
26407;SDS011;14583;43.604;1.364;2023-02-15T07:02:38;21.92;;;10.10;;
26407;SDS011;14583;43.604;1.364;2023-02-15T07:05:04;21.38;;;10.07;;
26407;SDS011;14583;43.604;1.364;2023-02-15T07:07:30;19.10;;;9.70;;
26407;SDS011;14583;43.604;1.364;2023-02-15T07:09:55;18.70;;;8.70;;
26407;SDS011;14583;43.604;1.364;2023-02-15T07:12:21;20.15;;;9.60;;
26407;SDS011;14583;43.604;1.364;2023-02-15T07:15:05;22.30;;;10.00;;
26407;SDS011;14583;43.604;1.364;2023-02-15T07:17:32;19.77;;;9.25;;
26407;SDS011;14583;43.604;1.364;2023-02-15T07:19:58;24.83;;;9.75;;
26407;SDS011;14583;43.604;1.364;2023-02-15T07:22:24;21.23;;;9.63;;
26407;SDS011;14583;43.604;1.364;2023-02-15T07:24:50;23.10;;;9.18;;
26407;SDS011;14583;43.604;1.364;2023-02-15T07:27:19;20.60;;;10.40;;
26407;SDS011;14583;43.604;1.364;2023-02-15T07:29:45;16.65;;;9.75;;
26407;SDS011;14583;43.604;1.364;2023-02-15T07:32:11;20.73;;;10.68;;
26407;SDS011;14583;43.604;1.364;2023-02-15T07:34:36;16.90;;;9.32;;
26407;SDS011;14583;43.604;1.364;2023-02-15T07:37:02;19.60;;;9.57;;
26407;SDS011;14583;43.604;1.364;2023-02-15T07:39:29;26.83;;;9.48;;
26407;SDS011;14583;43.604;1.364;2023-02-15T07:41:55;17.85;;;9.38;;
26407;SDS011;14583;43.604;1.364;2023-02-15T07:44:20;30.52;;;9.88;;
26407;SDS011;14583;43.604;1.364;2023-02-15T07:46:46;21.88;;;8.57;;
26407;SDS011;14583;43.604;1.364;2023-02-15T07:49:11;21.70;;;10.48;;
26407;SDS011;14583;43.604;1.364;2023-02-15T07:51:37;20.00;;;9.25;;
26407;SDS011;14583;43.604;1.364;2023-02-15T07:54:03;20.55;;;10.00;;
26407;SDS011;14583;43.604;1.364;2023-02-15T07:56:29;15.00;;;8.88;;
26407;SDS011;14583;43.604;1.364;2023-02-15T07:58:54;18.38;;;9.57;;
26407;SDS011;14583;43.604;1.364;2023-02-15T08:01:35;16.83;;;8.95;;
26407;SDS011;14583;43.604;1.364;2023-02-15T08:04:03;21.50;;;10.18;;
26407;SDS011;14583;43.604;1.364;2023-02-15T08:06:31;19.70;;;10.00;;
26407;SDS011;14583;43.604;1.364;2023-02-15T08:08:58;22.83;;;9.48;;
26407;SDS011;14583;43.604;1.364;2023-02-15T08:11:25;31.75;;;8.93;;
26407;SDS011;14583;43.604;1.364;2023-02-15T08:16:48;23.30;;;8.40;;
26407;SDS011;14583;43.604;1.364;2023-02-15T08:21:46;20.90;;;8.40;;
26407;SDS011;14583;43.604;1.364;2023-02-15T08:24:14;21.55;;;9.18;;
26407;SDS011;14583;43.604;1.364;2023-02-15T08:26:42;18.52;;;8.90;;
26407;SDS011;14583;43.604;1.364;2023-02-15T08:29:10;21.55;;;8.32;;
26407;SDS011;14583;43.604;1.364;2023-02-15T08:31:36;16.05;;;7.70;;
26407;SDS011;14583;43.604;1.364;2023-02-15T08:34:02;16.60;;;8.20;;
26407;SDS011;14583;43.604;1.364;2023-02-15T08:36:29;18.88;;;9.13;;
26407;SDS011;14583;43.604;1.364;2023-02-15T08:39:00;14.20;;;7.22;;
26407;SDS011;14583;43.604;1.364;2023-02-15T08:41:29;17.50;;;7.22;;
26407;SDS011;14583;43.604;1.364;2023-02-15T08:43:57;20.90;;;7.78;;
26407;SDS011;14583;43.604;1.364;2023-02-15T08:46:26;21.27;;;7.57;;
26407;SDS011;14583;43.604;1.364;2023-02-15T08:48:53;19.50;;;7.35;;
26407;SDS011;14583;43.604;1.364;2023-02-15T08:51:20;24.48;;;8.00;;
26407;SDS011;14583;43.604;1.364;2023-02-15T08:53:49;17.40;;;7.35;;
26407;SDS011;14583;43.604;1.364;2023-02-15T08:56:17;21.70;;;7.50;;
26407;SDS011;14583;43.604;1.364;2023-02-15T08:58:45;19.02;;;7.70;;
26407;SDS011;14583;43.604;1.364;2023-02-15T09:01:11;14.07;;;6.53;;
26407;SDS011;14583;43.604;1.364;2023-02-15T09:03:46;13.80;;;7.55;;
26407;SDS011;14583;43.604;1.364;2023-02-15T09:06:14;17.77;;;6.70;;
26407;SDS011;14583;43.604;1.364;2023-02-15T09:08:42;16.67;;;6.70;;
26407;SDS011;14583;43.604;1.364;2023-02-15T09:11:18;16.55;;;6.72;;
26407;SDS011;14583;43.604;1.364;2023-02-15T09:13:52;14.10;;;7.47;;
26407;SDS011;14583;43.604;1.364;2023-02-15T09:16:26;12.68;;;6.53;;
26407;SDS011;14583;43.604;1.364;2023-02-15T09:18:54;16.20;;;6.82;;
26407;SDS011;14583;43.604;1.364;2023-02-15T09:21:20;15.02;;;6.50;;
26407;SDS011;14583;43.604;1.364;2023-02-15T09:23:48;20.45;;;7.18;;
26407;SDS011;14583;43.604;1.364;2023-02-15T09:26:16;22.80;;;7.25;;
26407;SDS011;14583;43.604;1.364;2023-02-15T09:28:44;18.75;;;7.35;;
26407;SDS011;14583;43.604;1.364;2023-02-15T09:33:37;16.65;;;7.03;;
26407;SDS011;14583;43.604;1.364;2023-02-15T09:36:04;15.15;;;6.63;;
26407;SDS011;14583;43.604;1.364;2023-02-15T09:38:30;13.55;;;6.30;;
26407;SDS011;14583;43.604;1.364;2023-02-15T09:41:05;16.92;;;6.70;;
26407;SDS011;14583;43.604;1.364;2023-02-15T09:49:19;14.57;;;6.90;;
26407;SDS011;14583;43.604;1.364;2023-02-15T09:51:54;12.57;;;6.70;;
26407;SDS011;14583;43.604;1.364;2023-02-15T09:57:37;11.52;;;6.63;;
26407;SDS011;14583;43.604;1.364;2023-02-15T10:14:32;13.52;;;6.35;;
26407;SDS011;14583;43.604;1.364;2023-02-15T10:28:17;12.60;;;5.93;;
26407;SDS011;14583;43.604;1.364;2023-02-15T10:30:48;16.25;;;6.68;;
26407;SDS011;14583;43.604;1.364;2023-02-15T10:44:13;12.40;;;5.68;;
26407;SDS011;14583;43.604;1.364;2023-02-15T10:58:49;12.20;;;5.60;;
26407;SDS011;14583;43.604;1.364;2023-02-15T11:06:29;13.50;;;5.95;;
26407;SDS011;14583;43.604;1.364;2023-02-15T11:09:02;11.65;;;6.38;;
26407;SDS011;14583;43.604;1.364;2023-02-15T11:11:34;16.05;;;5.93;;
26407;SDS011;14583;43.604;1.364;2023-02-15T11:14:14;13.45;;;6.03;;
26407;SDS011;14583;43.604;1.364;2023-02-15T11:16:42;16.67;;;6.18;;
26407;SDS011;14583;43.604;1.364;2023-02-15T11:19:12;17.15;;;6.25;;
26407;SDS011;14583;43.604;1.364;2023-02-15T11:24:20;17.17;;;5.88;;
26407;SDS011;14583;43.604;1.364;2023-02-15T11:26:54;15.65;;;6.28;;
26407;SDS011;14583;43.604;1.364;2023-02-15T11:29:40;12.00;;;5.78;;
26407;SDS011;14583;43.604;1.364;2023-02-15T11:35:01;16.65;;;6.30;;
26407;SDS011;14583;43.604;1.364;2023-02-15T11:40:49;16.05;;;5.60;;
26407;SDS011;14583;43.604;1.364;2023-02-15T11:43:20;15.02;;;5.45;;
26407;SDS011;14583;43.604;1.364;2023-02-15T11:45:59;11.88;;;4.90;;
26407;SDS011;14583;43.604;1.364;2023-02-15T11:48:25;16.67;;;5.43;;
26407;SDS011;14583;43.604;1.364;2023-02-15T11:50:51;10.27;;;4.90;;
26407;SDS011;14583;43.604;1.364;2023-02-15T11:53:20;6.07;;;4.47;;
26407;SDS011;14583;43.604;1.364;2023-02-15T11:55:52;14.40;;;5.22;;
26407;SDS011;14583;43.604;1.364;2023-02-15T12:01:01;12.73;;;5.32;;
26407;SDS011;14583;43.604;1.364;2023-02-15T12:03:40;17.92;;;5.45;;
26407;SDS011;14583;43.604;1.364;2023-02-15T12:06:12;12.30;;;4.72;;
26407;SDS011;14583;43.604;1.364;2023-02-15T12:08:46;10.82;;;4.93;;
26407;SDS011;14583;43.604;1.364;2023-02-15T12:11:19;8.55;;;4.05;;
26407;SDS011;14583;43.604;1.364;2023-02-15T12:16:27;10.70;;;4.90;;
26407;SDS011;14583;43.604;1.364;2023-02-15T12:18:57;9.38;;;4.35;;
26407;SDS011;14583;43.604;1.364;2023-02-15T12:21:34;13.27;;;4.60;;
26407;SDS011;14583;43.604;1.364;2023-02-15T12:24:19;9.32;;;4.40;;
26407;SDS011;14583;43.604;1.364;2023-02-15T12:29:35;9.63;;;5.15;;
26407;SDS011;14583;43.604;1.364;2023-02-15T12:32:09;13.73;;;5.50;;
26407;SDS011;14583;43.604;1.364;2023-02-15T12:34:41;10.05;;;6.10;;
26407;SDS011;14583;43.604;1.364;2023-02-15T12:37:16;9.85;;;5.15;;
26407;SDS011;14583;43.604;1.364;2023-02-15T12:39:53;13.60;;;5.35;;
26407;SDS011;14583;43.604;1.364;2023-02-15T12:42:19;10.10;;;5.05;;
26407;SDS011;14583;43.604;1.364;2023-02-15T12:47:20;11.25;;;5.03;;
26407;SDS011;14583;43.604;1.364;2023-02-15T12:52:36;10.68;;;4.90;;
26407;SDS011;14583;43.604;1.364;2023-02-15T13:00:43;10.70;;;4.93;;
26407;SDS011;14583;43.604;1.364;2023-02-15T13:03:16;10.02;;;5.22;;
26407;SDS011;14583;43.604;1.364;2023-02-15T13:05:44;13.77;;;4.90;;
26407;SDS011;14583;43.604;1.364;2023-02-15T13:08:20;10.82;;;4.82;;
26407;SDS011;14583;43.604;1.364;2023-02-15T13:13:35;11.13;;;4.72;;
26407;SDS011;14583;43.604;1.364;2023-02-15T13:16:20;12.73;;;4.50;;
26407;SDS011;14583;43.604;1.364;2023-02-15T13:18:55;12.10;;;4.38;;
26407;SDS011;14583;43.604;1.364;2023-02-15T13:21:23;11.27;;;3.83;;
26407;SDS011;14583;43.604;1.364;2023-02-15T13:23:57;9.82;;;4.18;;
26407;SDS011;14583;43.604;1.364;2023-02-15T13:26:26;12.38;;;4.68;;
26407;SDS011;14583;43.604;1.364;2023-02-15T13:28:56;14.52;;;4.72;;
26407;SDS011;14583;43.604;1.364;2023-02-15T13:31:33;7.22;;;4.57;;
26407;SDS011;14583;43.604;1.364;2023-02-15T13:34:07;10.32;;;4.65;;
26407;SDS011;14583;43.604;1.364;2023-02-15T13:50:34;8.05;;;4.60;;
26407;SDS011;14583;43.604;1.364;2023-02-15T13:55:57;8.75;;;4.47;;
26407;SDS011;14583;43.604;1.364;2023-02-15T14:05:29;6.13;;;3.85;;
26407;SDS011;14583;43.604;1.364;2023-02-15T14:08:13;8.48;;;4.38;;
26407;SDS011;14583;43.604;1.364;2023-02-15T14:11:08;9.15;;;4.07;;
26407;SDS011;14583;43.604;1.364;2023-02-15T14:21:58;8.73;;;4.03;;
26407;SDS011;14583;43.604;1.364;2023-02-15T14:32:26;8.77;;;3.85;;
26407;SDS011;14583;43.604;1.364;2023-02-15T14:35:08;7.60;;;3.57;;
26407;SDS011;14583;43.604;1.364;2023-02-15T14:37:47;6.00;;;3.25;;
26407;SDS011;14583;43.604;1.364;2023-02-15T14:40:52;6.75;;;3.80;;
26407;SDS011;14583;43.604;1.364;2023-02-15T14:49:15;6.72;;;3.28;;
26407;SDS011;14583;43.604;1.364;2023-02-15T14:56:43;11.18;;;4.13;;
26407;SDS011;14583;43.604;1.364;2023-02-15T14:59:19;14.30;;;3.75;;
26407;SDS011;14583;43.604;1.364;2023-02-15T15:04:24;7.78;;;3.33;;
26407;SDS011;14583;43.604;1.364;2023-02-15T15:09:37;11.38;;;3.70;;
26407;SDS011;14583;43.604;1.364;2023-02-15T15:12:18;7.65;;;3.80;;
26407;SDS011;14583;43.604;1.364;2023-02-15T15:14:51;10.48;;;3.88;;
26407;SDS011;14583;43.604;1.364;2023-02-15T15:39:40;9.20;;;3.40;;
26407;SDS011;14583;43.604;1.364;2023-02-15T15:42:13;14.13;;;3.78;;
26407;SDS011;14583;43.604;1.364;2023-02-15T15:50:29;7.43;;;3.25;;
26407;SDS011;14583;43.604;1.364;2023-02-15T15:52:57;5.97;;;3.30;;
26407;SDS011;14583;43.604;1.364;2023-02-15T15:55:25;6.35;;;3.13;;
26407;SDS011;14583;43.604;1.364;2023-02-15T15:57:55;6.57;;;3.60;;
26407;SDS011;14583;43.604;1.364;2023-02-15T16:03:15;7.97;;;3.60;;
26407;SDS011;14583;43.604;1.364;2023-02-15T16:05:45;8.60;;;3.40;;
26407;SDS011;14583;43.604;1.364;2023-02-15T16:08:10;10.18;;;3.33;;
26407;SDS011;14583;43.604;1.364;2023-02-15T16:10:36;6.63;;;3.10;;
26407;SDS011;14583;43.604;1.364;2023-02-15T16:13:04;6.40;;;3.17;;
26407;SDS011;14583;43.604;1.364;2023-02-15T16:15:34;5.13;;;3.33;;
26407;SDS011;14583;43.604;1.364;2023-02-15T16:18:02;6.25;;;3.35;;
26407;SDS011;14583;43.604;1.364;2023-02-15T16:20:34;5.72;;;3.22;;
26407;SDS011;14583;43.604;1.364;2023-02-15T16:25:54;5.65;;;3.30;;
26407;SDS011;14583;43.604;1.364;2023-02-15T16:28:39;5.82;;;3.63;;
26407;SDS011;14583;43.604;1.364;2023-02-15T16:31:22;5.85;;;3.60;;
26407;SDS011;14583;43.604;1.364;2023-02-15T16:33:51;6.22;;;3.92;;
26407;SDS011;14583;43.604;1.364;2023-02-15T16:36:22;6.43;;;3.67;;
26407;SDS011;14583;43.604;1.364;2023-02-15T16:41:15;9.70;;;3.72;;
26407;SDS011;14583;43.604;1.364;2023-02-15T16:43:53;11.68;;;3.90;;
26407;SDS011;14583;43.604;1.364;2023-02-15T16:48:52;6.90;;;3.60;;
26407;SDS011;14583;43.604;1.364;2023-02-15T16:51:22;8.25;;;4.40;;
26407;SDS011;14583;43.604;1.364;2023-02-15T16:53:51;6.40;;;4.30;;
26407;SDS011;14583;43.604;1.364;2023-02-15T16:56:22;7.47;;;4.72;;
26407;SDS011;14583;43.604;1.364;2023-02-15T16:58:58;9.93;;;4.50;;
26407;SDS011;14583;43.604;1.364;2023-02-15T17:01:29;11.40;;;5.03;;
26407;SDS011;14583;43.604;1.364;2023-02-15T17:04:12;9.53;;;4.63;;
26407;SDS011;14583;43.604;1.364;2023-02-15T17:06:58;11.85;;;4.40;;
26407;SDS011;14583;43.604;1.364;2023-02-15T17:11:50;10.18;;;4.93;;
26407;SDS011;14583;43.604;1.364;2023-02-15T17:14:26;9.70;;;5.07;;
26407;SDS011;14583;43.604;1.364;2023-02-15T17:16:54;10.98;;;5.03;;
26407;SDS011;14583;43.604;1.364;2023-02-15T17:19:32;10.55;;;5.47;;
26407;SDS011;14583;43.604;1.364;2023-02-15T17:22:14;12.18;;;5.63;;
26407;SDS011;14583;43.604;1.364;2023-02-15T17:24:44;12.20;;;5.68;;
26407;SDS011;14583;43.604;1.364;2023-02-15T17:27:23;13.75;;;6.20;;
26407;SDS011;14583;43.604;1.364;2023-02-15T17:29:55;8.63;;;6.20;;
26407;SDS011;14583;43.604;1.364;2023-02-15T17:32:26;10.43;;;6.18;;
26407;SDS011;14583;43.604;1.364;2023-02-15T17:39:54;12.63;;;6.90;;
26407;SDS011;14583;43.604;1.364;2023-02-15T17:42:21;11.65;;;6.35;;
26407;SDS011;14583;43.604;1.364;2023-02-15T17:44:47;9.70;;;6.10;;
26407;SDS011;14583;43.604;1.364;2023-02-15T17:47:14;10.50;;;5.82;;
26407;SDS011;14583;43.604;1.364;2023-02-15T17:49:46;13.65;;;6.03;;
26407;SDS011;14583;43.604;1.364;2023-02-15T17:52:14;10.43;;;5.63;;
26407;SDS011;14583;43.604;1.364;2023-02-15T17:54:42;11.02;;;6.35;;
26407;SDS011;14583;43.604;1.364;2023-02-15T17:57:27;10.23;;;6.20;;
26407;SDS011;14583;43.604;1.364;2023-02-15T17:59:54;13.20;;;5.78;;
26407;SDS011;14583;43.604;1.364;2023-02-15T18:02:38;12.80;;;6.15;;
26407;SDS011;14583;43.604;1.364;2023-02-15T18:05:22;12.05;;;6.07;;
26407;SDS011;14583;43.604;1.364;2023-02-15T18:08:14;9.93;;;6.00;;
26407;SDS011;14583;43.604;1.364;2023-02-15T18:11:00;12.13;;;6.03;;
26407;SDS011;14583;43.604;1.364;2023-02-15T18:13:44;13.80;;;6.60;;
26407;SDS011;14583;43.604;1.364;2023-02-15T18:16:12;14.35;;;6.15;;
26407;SDS011;14583;43.604;1.364;2023-02-15T18:18:39;14.35;;;6.00;;
26407;SDS011;14583;43.604;1.364;2023-02-15T18:21:05;11.25;;;6.65;;
26407;SDS011;14583;43.604;1.364;2023-02-15T18:23:32;12.68;;;6.30;;
26407;SDS011;14583;43.604;1.364;2023-02-15T18:25:58;10.70;;;5.93;;
26407;SDS011;14583;43.604;1.364;2023-02-15T18:28:23;10.43;;;6.10;;
26407;SDS011;14583;43.604;1.364;2023-02-15T18:30:49;15.40;;;6.72;;
26407;SDS011;14583;43.604;1.364;2023-02-15T18:33:24;10.73;;;6.20;;
26407;SDS011;14583;43.604;1.364;2023-02-15T18:36:02;13.90;;;6.90;;
26407;SDS011;14583;43.604;1.364;2023-02-15T18:38:30;13.50;;;6.35;;
26407;SDS011;14583;43.604;1.364;2023-02-15T18:40:56;12.15;;;6.55;;
26407;SDS011;14583;43.604;1.364;2023-02-15T18:43:22;13.40;;;6.47;;
26407;SDS011;14583;43.604;1.364;2023-02-15T18:45:48;8.27;;;5.82;;
26407;SDS011;14583;43.604;1.364;2023-02-15T18:48:13;11.30;;;6.78;;
26407;SDS011;14583;43.604;1.364;2023-02-15T18:50:39;12.73;;;6.53;;
26407;SDS011;14583;43.604;1.364;2023-02-15T18:53:06;16.50;;;6.85;;